createdAt,value
2022-08-25T00:00:42.427Z,0
2022-08-25T00:01:52.271Z,0
2022-08-25T00:03:10.414Z,0
2022-08-25T00:05:05.568Z,0
2022-08-25T00:06:11.212Z,0
2022-08-25T00:07:24.277Z,0
2022-08-25T00:08:58.868Z,0
2022-08-25T00:10:01.685Z,0
2022-08-25T00:11:20.256Z,0
2022-08-25T00:12:54.842Z,0
2022-08-25T00:13:57.750Z,0
2022-08-25T00:15:00.790Z,0
2022-08-25T00:16:35.894Z,0
2022-08-25T00:17:38.590Z,0
2022-08-25T00:18:47.959Z,0
2022-08-25T00:20:22.517Z,0
2022-08-25T00:21:25.340Z,0
2022-08-25T00:22:28.018Z,0
2022-08-25T00:24:02.658Z,0
2022-08-25T00:25:05.345Z,0
2022-08-25T00:26:08.136Z,0
2022-08-25T00:27:43.005Z,0
2022-08-25T00:28:48.631Z,0
2022-08-25T00:29:51.529Z,0
2022-08-25T00:31:43.949Z,0
2022-08-25T00:32:57.032Z,0
2022-08-25T00:34:00.428Z,0
2022-08-25T00:35:34.900Z,0
2022-08-25T00:36:37.862Z,0
2022-08-25T00:37:40.859Z,0
2022-08-25T00:39:15.532Z,0
2022-08-25T00:40:18.915Z,0
2022-08-25T00:41:21.647Z,0
2022-08-25T00:42:56.399Z,0
2022-08-25T00:43:59.119Z,0
2022-08-25T00:45:02.370Z,0
2022-08-25T00:46:37.599Z,0
2022-08-25T00:47:40.328Z,0
2022-08-25T00:48:43.180Z,0
2022-08-25T00:50:32.269Z,0
2022-08-25T00:51:35.139Z,0
2022-08-25T00:52:37.772Z,0
2022-08-25T00:54:12.222Z,0
2022-08-25T00:55:21.154Z,0
2022-08-25T00:56:26.986Z,0
2022-08-25T00:58:03.086Z,0
2022-08-25T00:59:07.887Z,0
2022-08-25T01:00:40.117Z,0
2022-08-25T01:01:43.160Z,0
2022-08-25T01:02:46.567Z,0
2022-08-25T01:04:21.228Z,0
2022-08-25T01:05:24.199Z,0
2022-08-25T01:06:27.253Z,0
2022-08-25T01:08:06.627Z,0
2022-08-25T01:09:09.754Z,0
2022-08-25T01:10:12.475Z,0
2022-08-25T01:11:47.149Z,0
2022-08-25T01:12:50.258Z,0
2022-08-25T01:13:53.266Z,0
2022-08-25T01:15:29.279Z,0
2022-08-25T01:16:32.373Z,0
2022-08-25T01:17:35.404Z,0
2022-08-25T01:19:09.955Z,0
2022-08-25T01:20:18.203Z,0
2022-08-25T01:21:20.997Z,0
2022-08-25T01:23:00.945Z,0
2022-08-25T01:24:03.658Z,0
2022-08-25T01:25:06.352Z,0
2022-08-25T01:26:47.601Z,0
2022-08-25T01:27:50.248Z,0
2022-08-25T01:28:54.719Z,0
2022-08-25T01:30:29.413Z,0
2022-08-25T01:31:51.843Z,0
2022-08-25T01:32:54.968Z,0
2022-08-25T01:34:29.691Z,0
2022-08-25T01:35:32.646Z,0
2022-08-25T01:36:35.498Z,0
2022-08-25T01:38:10.447Z,0
2022-08-25T01:39:13.310Z,0
2022-08-25T01:40:16.655Z,0
2022-08-25T01:41:51.371Z,0
2022-08-25T01:42:54.404Z,0
2022-08-25T01:43:57.200Z,0
2022-08-25T01:45:34.474Z,0
2022-08-25T01:46:37.729Z,0
2022-08-25T01:47:40.425Z,0
2022-08-25T01:49:18.255Z,0
2022-08-25T01:50:21.166Z,0
2022-08-25T01:51:23.907Z,0
2022-08-25T01:52:58.267Z,0
2022-08-25T01:54:01.983Z,0
2022-08-25T01:55:04.738Z,0
2022-08-25T01:56:41.083Z,0
2022-08-25T01:57:43.978Z,0
2022-08-25T01:58:46.646Z,0
2022-08-25T02:00:40.113Z,0
2022-08-25T02:01:43.636Z,0
2022-08-25T02:03:01.199Z,0
2022-08-25T02:04:40.787Z,0
2022-08-25T02:05:59.288Z,0
2022-08-25T02:07:03.716Z,0
2022-08-25T02:08:38.356Z,0
2022-08-25T02:09:41.065Z,0
2022-08-25T02:10:45.630Z,0
2022-08-25T02:12:20.075Z,0
2022-08-25T02:13:32.542Z,0
2022-08-25T02:14:35.464Z,0
2022-08-25T02:16:10.044Z,0
2022-08-25T02:17:13.145Z,0
2022-08-25T02:18:16.240Z,0
2022-08-25T02:19:50.657Z,0
2022-08-25T02:20:53.333Z,0
2022-08-25T02:21:56.130Z,0
2022-08-25T02:23:30.926Z,0
2022-08-25T02:24:33.657Z,0
2022-08-25T02:25:36.414Z,0
2022-08-25T02:27:10.770Z,0
2022-08-25T02:28:13.980Z,0
2022-08-25T02:29:16.745Z,0
2022-08-25T02:30:52.460Z,0
2022-08-25T02:32:03.929Z,0
2022-08-25T02:33:06.824Z,0
2022-08-25T02:34:41.525Z,0
2022-08-25T02:35:44.403Z,0
2022-08-25T02:36:48.479Z,0
2022-08-25T02:38:23.383Z,0
2022-08-25T02:39:26.561Z,0
2022-08-25T02:40:31.462Z,0
2022-08-25T02:42:06.068Z,0
2022-08-25T02:43:10.765Z,0
2022-08-25T02:44:13.732Z,0
2022-08-25T02:45:48.731Z,0
2022-08-25T02:46:51.944Z,0
2022-08-25T02:47:55.121Z,0
2022-08-25T02:49:29.753Z,0
2022-08-25T02:50:32.353Z,0
2022-08-25T02:51:35.296Z,0
2022-08-25T02:53:10.141Z,0
2022-08-25T02:54:12.818Z,0
2022-08-25T02:55:15.600Z,0
2022-08-25T02:56:50.299Z,0
2022-08-25T02:57:53.138Z,0
2022-08-25T02:58:55.799Z,0
2022-08-25T03:00:41.592Z,0
2022-08-25T03:01:51.466Z,0
2022-08-25T03:02:54.422Z,0
2022-08-25T03:04:29.106Z,0
2022-08-25T03:05:32.391Z,0
2022-08-25T03:06:35.007Z,0
2022-08-25T03:08:11.315Z,0
2022-08-25T03:09:14.183Z,0
2022-08-25T03:10:16.998Z,0
2022-08-25T03:11:54.569Z,0
2022-08-25T03:12:57.415Z,0
2022-08-25T03:14:00.263Z,0
2022-08-25T03:15:41.878Z,0
2022-08-25T03:16:52.156Z,0
2022-08-25T03:18:05.704Z,0
2022-08-25T03:19:43.368Z,0
2022-08-25T03:20:46.106Z,0
2022-08-25T03:21:48.858Z,0
2022-08-25T03:23:23.561Z,0
2022-08-25T03:24:26.406Z,0
2022-08-25T03:25:35.129Z,0
2022-08-25T03:27:17.348Z,0
2022-08-25T03:28:20.186Z,0
2022-08-25T03:29:27.633Z,0
2022-08-25T03:31:07.031Z,0
2022-08-25T03:32:10.591Z,0
2022-08-25T03:33:13.599Z,0
2022-08-25T03:34:48.117Z,0
2022-08-25T03:35:53.342Z,0
2022-08-25T03:36:56.028Z,0
2022-08-25T03:38:30.663Z,0
2022-08-25T03:39:33.369Z,0
2022-08-25T03:40:43.419Z,0
2022-08-25T03:42:17.988Z,0
2022-08-25T03:43:20.788Z,0
2022-08-25T03:44:23.693Z,0
2022-08-25T03:45:58.864Z,0
2022-08-25T03:47:01.601Z,0
2022-08-25T03:48:04.527Z,0
2022-08-25T03:49:41.872Z,0
2022-08-25T03:50:44.877Z,0
2022-08-25T03:51:54.730Z,0
2022-08-25T03:53:31.877Z,0
2022-08-25T03:54:34.679Z,0
2022-08-25T03:55:38.269Z,0
2022-08-25T03:57:13.934Z,0
2022-08-25T03:58:18.481Z,0
2022-08-25T03:59:21.176Z,0
2022-08-25T04:00:40.020Z,0
2022-08-25T04:01:44.061Z,0
2022-08-25T04:02:47.429Z,0
2022-08-25T04:04:22.358Z,0
2022-08-25T04:06:13.020Z,0
2022-08-25T04:07:18.960Z,0
2022-08-25T04:08:24.727Z,0
2022-08-25T04:10:04.844Z,0
2022-08-25T04:11:07.461Z,0
2022-08-25T04:12:15.508Z,0
2022-08-25T04:13:53.360Z,0
2022-08-25T04:14:55.927Z,0
2022-08-25T04:15:58.546Z,0
2022-08-25T04:17:33.481Z,0
2022-08-25T04:18:36.240Z,0
2022-08-25T04:19:38.903Z,0
2022-08-25T04:21:16.988Z,0
2022-08-25T04:22:25.708Z,0
2022-08-25T04:23:31.682Z,0
2022-08-25T04:25:06.000Z,0
2022-08-25T04:26:08.743Z,0
2022-08-25T04:27:12.508Z,0
2022-08-25T04:28:47.104Z,0
2022-08-25T04:29:51.847Z,0
2022-08-25T04:31:03.188Z,0
2022-08-25T04:32:38.207Z,0
2022-08-25T04:33:41.137Z,0
2022-08-25T04:34:58.744Z,0
2022-08-25T04:36:39.917Z,0
2022-08-25T04:37:42.614Z,0
2022-08-25T04:38:45.389Z,0
2022-08-25T04:40:20.522Z,0
2022-08-25T04:41:31.620Z,0
2022-08-25T04:42:34.383Z,0
2022-08-25T04:44:09.037Z,0
2022-08-25T04:45:12.081Z,0
2022-08-25T04:46:20.007Z,0
2022-08-25T04:48:00.608Z,0
2022-08-25T04:49:03.356Z,0
2022-08-25T04:50:06.156Z,0
2022-08-25T04:51:55.073Z,0
2022-08-25T04:52:59.706Z,0
2022-08-25T04:54:02.391Z,0
2022-08-25T04:55:45.755Z,0
2022-08-25T04:56:50.222Z,0
2022-08-25T04:57:57.038Z,0
2022-08-25T04:59:36.349Z,0
2022-08-25T05:00:40.766Z,0
2022-08-25T05:01:43.953Z,0
2022-08-25T05:02:46.641Z,0
2022-08-25T05:04:39.079Z,0
2022-08-25T05:05:41.824Z,0
2022-08-25T05:06:44.581Z,0
2022-08-25T05:08:19.699Z,0
2022-08-25T05:09:27.321Z,0
2022-08-25T05:10:32.253Z,0
2022-08-25T05:12:12.589Z,0
2022-08-25T05:13:15.498Z,0
2022-08-25T05:14:19.962Z,0
2022-08-25T05:15:58.258Z,0
2022-08-25T05:17:03.608Z,0
2022-08-25T05:18:12.825Z,0
2022-08-25T05:19:47.353Z,0
2022-08-25T05:20:51.192Z,0
2022-08-25T05:21:54.131Z,0
2022-08-25T05:23:30.436Z,0
2022-08-25T05:24:33.904Z,0
2022-08-25T05:25:36.856Z,0
2022-08-25T05:27:15.122Z,0
2022-08-25T05:28:18.111Z,0
2022-08-25T05:29:20.930Z,0.435
2022-08-25T05:30:55.225Z,0.435
2022-08-25T05:32:07.719Z,0
2022-08-25T05:33:10.473Z,0
2022-08-25T05:34:47.124Z,0.435
2022-08-25T05:35:49.971Z,0.435
2022-08-25T05:36:53.784Z,0.435
2022-08-25T05:38:32.553Z,0.435
2022-08-25T05:39:38.194Z,0.435
2022-08-25T05:40:41.650Z,0.435
2022-08-25T05:42:16.100Z,0.435
2022-08-25T05:43:18.651Z,0.435
2022-08-25T05:44:26.637Z,0.435
2022-08-25T05:46:01.825Z,0.435
2022-08-25T05:47:04.587Z,0.435
2022-08-25T05:48:08.636Z,0.435
2022-08-25T05:49:43.313Z,0.435
2022-08-25T05:50:46.132Z,0.435
2022-08-25T05:51:48.836Z,0.435
2022-08-25T05:53:28.616Z,0.435
2022-08-25T05:54:33.900Z,0.585
2022-08-25T05:55:36.880Z,0.585
2022-08-25T05:57:11.293Z,0.435
2022-08-25T05:58:19.876Z,0.585
2022-08-25T05:59:26.466Z,0.585
2022-08-25T06:00:39.555Z,0.585
2022-08-25T06:01:43.477Z,0.585
2022-08-25T06:02:48.003Z,0.585
2022-08-25T06:04:23.728Z,0.585
2022-08-25T06:05:26.619Z,0.735
2022-08-25T06:06:29.210Z,0.585
2022-08-25T06:08:03.895Z,0.735
2022-08-25T06:09:08.249Z,0.735
2022-08-25T06:10:11.868Z,0.885
2022-08-25T06:11:46.757Z,0.885
2022-08-25T06:12:50.466Z,0.885
2022-08-25T06:13:56.981Z,0.885
2022-08-25T06:15:31.352Z,0.885
2022-08-25T06:16:34.372Z,0.885
2022-08-25T06:17:37.016Z,1.02
2022-08-25T06:19:16.635Z,0.885
2022-08-25T06:20:22.141Z,1.02
2022-08-25T06:21:28.048Z,1.02
2022-08-25T06:23:02.408Z,1.02
2022-08-25T06:24:05.207Z,1.02
2022-08-25T06:25:08.409Z,1.02
2022-08-25T06:26:49.512Z,1.02
2022-08-25T06:27:52.175Z,1.17
2022-08-25T06:28:54.947Z,1.02
2022-08-25T06:30:45.805Z,1.02
2022-08-25T06:31:49.256Z,1.17
2022-08-25T06:32:51.922Z,1.17
2022-08-25T06:34:29.949Z,1.17
2022-08-25T06:35:32.844Z,1.17
2022-08-25T06:36:38.022Z,1.17
2022-08-25T06:38:12.668Z,1.17
2022-08-25T06:39:16.309Z,1.17
2022-08-25T06:40:19.570Z,1.17
2022-08-25T06:42:05.107Z,1.17
2022-08-25T06:43:10.231Z,1.17
2022-08-25T06:44:27.738Z,1.17
2022-08-25T06:46:02.230Z,1.32
2022-08-25T06:47:05.760Z,1.32
2022-08-25T06:48:08.585Z,1.32
2022-08-25T06:49:47.318Z,1.32
2022-08-25T06:50:50.165Z,1.47
2022-08-25T06:51:53.317Z,1.47
2022-08-25T06:53:32.372Z,1.47
2022-08-25T06:54:35.034Z,1.755
2022-08-25T06:55:37.779Z,1.905
2022-08-25T06:57:19.222Z,2.34
2022-08-25T06:58:27.920Z,2.34
2022-08-25T06:59:37.904Z,2.49
2022-08-25T07:00:48.808Z,2.79
2022-08-25T07:01:56.006Z,3.075
2022-08-25T07:03:04.880Z,3.075
2022-08-25T07:04:43.039Z,3.075
2022-08-25T07:06:06.453Z,2.925
2022-08-25T07:07:09.093Z,2.64
2022-08-25T07:08:58.330Z,2.34
2022-08-25T07:10:06.892Z,2.34
2022-08-25T07:11:22.304Z,2.19
2022-08-25T07:12:56.852Z,2.19
2022-08-25T07:14:00.706Z,2.19
2022-08-25T07:15:37.509Z,2.055
2022-08-25T07:17:23.933Z,2.055
2022-08-25T07:18:28.345Z,2.19
2022-08-25T07:19:31.577Z,2.19
2022-08-25T07:21:24.807Z,2.19
2022-08-25T07:22:32.076Z,2.34
2022-08-25T07:23:35.222Z,2.19
2022-08-25T07:25:09.658Z,2.19
2022-08-25T07:26:42.802Z,2.19
2022-08-25T07:27:47.918Z,2.34
2022-08-25T07:29:31.688Z,2.34
2022-08-25T07:30:37.758Z,2.34
2022-08-25T07:52:06.022Z,2.19
2022-08-25T07:53:43.460Z,2.49
2022-08-25T07:54:58.268Z,2.49
2022-08-25T07:57:39.509Z,2.64
2022-08-25T07:58:42.485Z,2.49
2022-08-25T07:59:51.206Z,2.64
2022-08-25T08:00:42.264Z,2.64
2022-08-25T08:01:49.897Z,2.79
2022-08-25T08:02:54.522Z,2.64
2022-08-25T08:05:04.559Z,2.64
2022-08-25T08:06:13.346Z,2.79
2022-08-25T08:07:23.703Z,2.79
2022-08-25T08:09:21.364Z,2.79
2022-08-25T08:11:29.591Z,2.79
2022-08-25T08:12:36.591Z,2.64
2022-08-25T08:14:14.166Z,2.79
2022-08-25T08:15:29.553Z,2.79
2022-08-25T08:16:34.088Z,2.925
2022-08-25T08:18:12.945Z,2.925
2022-08-25T08:19:17.112Z,3.075
2022-08-25T08:20:23.475Z,3.075
2022-08-25T08:22:02.531Z,2.925
2022-08-25T08:23:05.696Z,2.925
2022-08-25T08:24:54.324Z,2.925
2022-08-25T08:27:10.329Z,3.075
2022-08-25T08:28:18.977Z,3.075
2022-08-25T08:29:23.999Z,3.075
2022-08-25T08:31:11.174Z,3.225
2022-08-25T08:32:18.800Z,3.075
2022-08-25T08:33:46.534Z,3.225
2022-08-25T08:35:21.996Z,3.225
2022-08-25T08:36:31.236Z,3.075
2022-08-25T08:37:41.172Z,3.225
2022-08-25T08:39:29.956Z,3.225
2022-08-25T08:40:33.345Z,3.225
2022-08-25T08:42:16.945Z,3.225
2022-08-25T08:44:02.092Z,3.51
2022-08-25T08:45:09.646Z,3.225
2022-08-25T08:46:14.041Z,3.225
2022-08-25T08:47:51.735Z,3.075
2022-08-25T08:48:54.829Z,3.075
2022-08-25T08:50:00.423Z,3.51
2022-08-25T08:51:52.150Z,3.66
2022-08-25T08:53:00.033Z,3.66
2022-08-25T08:54:14.968Z,3.66
2022-08-25T08:55:58.516Z,3.81
2022-08-25T08:57:10.216Z,3.81
2022-08-25T08:58:13.252Z,3.66
2022-08-25T09:00:00.837Z,3.81
2022-08-25T09:00:41.179Z,3.81
2022-08-25T09:02:00.415Z,3.66
2022-08-25T09:03:24.824Z,3.81
2022-08-25T09:05:09.646Z,3.96
2022-08-25T09:06:18.214Z,3.96
2022-08-25T09:07:21.814Z,3.81
2022-08-25T09:09:06.706Z,3.81
2022-08-25T09:10:10.859Z,3.81
2022-08-25T09:11:24.665Z,3.81
2022-08-25T09:13:11.255Z,3.66
2022-08-25T09:14:15.684Z,3.81
2022-08-25T09:15:31.388Z,3.81
2022-08-25T09:17:34.615Z,3.96
2022-08-25T09:18:51.413Z,3.81
2022-08-25T09:19:59.409Z,3.96
2022-08-25T09:21:35.376Z,3.81
2022-08-25T09:23:05.183Z,3.66
2022-08-25T09:24:11.750Z,3.66
2022-08-25T09:26:16.566Z,3.81
2022-08-25T09:27:19.602Z,3.96
2022-08-25T09:28:23.567Z,4.095
2022-08-25T09:30:00.534Z,3.96
2022-08-25T09:31:04.221Z,3.96
2022-08-25T09:32:08.047Z,3.96
2022-08-25T09:34:00.437Z,3.96
2022-08-25T09:35:03.484Z,3.96
2022-08-25T09:36:14.431Z,3.96
2022-08-25T09:37:54.807Z,3.96
2022-08-25T09:38:57.484Z,3.96
2022-08-25T09:40:03.066Z,3.96
2022-08-25T09:41:42.788Z,3.81
2022-08-25T09:42:57.682Z,3.81
2022-08-25T09:44:04.110Z,3.81
2022-08-25T09:45:48.142Z,4.095
2022-08-25T09:46:56.512Z,3.96
2022-08-25T09:48:01.058Z,3.96
2022-08-25T09:49:43.966Z,3.96
2022-08-25T09:50:57.926Z,3.96
2022-08-25T09:52:18.550Z,3.96
2022-08-25T09:54:10.824Z,4.095
2022-08-25T09:55:20.212Z,3.96
2022-08-25T09:56:28.648Z,3.96
2022-08-25T09:58:09.517Z,3.81
2022-08-25T09:59:40.373Z,3.96
2022-08-25T10:00:41.711Z,4.245
2022-08-25T10:01:51.830Z,4.395
2022-08-25T10:02:55.254Z,4.395
2022-08-25T10:04:52.363Z,4.245
2022-08-25T10:06:01.833Z,4.095
2022-08-25T10:07:04.735Z,3.96
2022-08-25T10:08:51.369Z,4.245
2022-08-25T10:09:58.895Z,4.245
2022-08-25T10:11:08.862Z,4.395
2022-08-25T10:12:57.271Z,4.395
2022-08-25T10:14:04.467Z,4.245
2022-08-25T10:15:16.897Z,4.245
2022-08-25T10:17:09.693Z,4.095
2022-08-25T10:18:20.717Z,4.395
2022-08-25T10:19:24.077Z,4.395
2022-08-25T10:21:13.279Z,4.545
2022-08-25T10:22:17.206Z,4.545
2022-08-25T10:23:22.268Z,4.545
2022-08-25T10:25:01.630Z,4.545
2022-08-25T10:26:24.096Z,4.545
2022-08-25T10:27:28.819Z,4.395
2022-08-25T10:29:03.794Z,4.395
2022-08-25T10:30:09.116Z,4.545
2022-08-25T10:31:15.604Z,4.545
2022-08-25T10:32:50.297Z,4.545
2022-08-25T10:33:56.044Z,4.395
2022-08-25T10:35:03.169Z,4.395
2022-08-25T10:36:42.960Z,4.545
2022-08-25T10:37:56.042Z,4.545
2022-08-25T10:39:33.896Z,4.545
2022-08-25T10:41:14.161Z,4.395
2022-08-25T10:42:31.499Z,4.395
2022-08-25T10:43:36.123Z,4.545
2022-08-25T10:45:22.319Z,4.395
2022-08-25T10:46:30.115Z,4.395
2022-08-25T10:47:34.323Z,4.545
2022-08-25T10:49:09.252Z,4.545
2022-08-25T10:50:14.042Z,4.695
2022-08-25T10:51:25.792Z,4.695
2022-08-25T10:53:06.456Z,4.545
2022-08-25T10:54:13.587Z,4.695
2022-08-25T10:55:19.597Z,4.545
2022-08-25T10:57:08.220Z,4.695
2022-08-25T10:58:11.518Z,4.545
2022-08-25T10:59:21.212Z,4.545
2022-08-25T11:00:54.087Z,4.695
2022-08-25T11:02:10.788Z,4.545
2022-08-25T11:03:13.919Z,4.545
2022-08-25T11:04:54.060Z,4.545
2022-08-25T11:05:59.695Z,4.395
2022-08-25T11:07:09.925Z,4.545
2022-08-25T11:08:46.924Z,4.545
2022-08-25T11:09:54.868Z,4.545
2022-08-25T11:10:59.293Z,4.545
2022-08-25T11:12:35.213Z,4.545
2022-08-25T11:13:41.756Z,4.545
2022-08-25T11:14:50.704Z,4.695
2022-08-25T11:16:42.933Z,4.545
2022-08-25T11:17:50.292Z,4.545
2022-08-25T11:18:53.493Z,4.545
2022-08-25T11:20:38.725Z,4.545
2022-08-25T11:21:47.140Z,4.695
2022-08-25T11:22:52.787Z,4.545
2022-08-25T11:24:29.307Z,4.545
2022-08-25T11:25:35.201Z,4.695
2022-08-25T11:26:47.954Z,4.98
2022-08-25T11:28:31.035Z,4.695
2022-08-25T11:29:42.178Z,4.695
2022-08-25T11:30:52.204Z,4.83
2022-08-25T11:32:29.594Z,4.545
2022-08-25T11:33:34.427Z,4.545
2022-08-25T11:34:43.465Z,4.695
2022-08-25T11:36:24.465Z,4.695
2022-08-25T11:37:33.850Z,4.83
2022-08-25T11:38:38.190Z,4.83
2022-08-25T11:40:14.589Z,4.545
2022-08-25T11:41:22.702Z,4.695
2022-08-25T11:42:26.239Z,4.695
2022-08-25T11:44:07.814Z,4.695
2022-08-25T11:45:22.130Z,4.695
2022-08-25T11:46:27.828Z,4.695
2022-08-25T11:48:04.875Z,4.83
2022-08-25T11:49:09.632Z,4.695
2022-08-25T11:50:14.028Z,4.695
2022-08-25T11:51:54.026Z,4.83
2022-08-25T11:52:58.834Z,4.695
2022-08-25T11:54:05.918Z,4.545
2022-08-25T11:55:48.346Z,4.395
2022-08-25T11:56:51.809Z,4.395
2022-08-25T11:57:59.066Z,4.545
2022-08-25T11:59:35.857Z,4.545
2022-08-25T12:00:41.038Z,4.395
2022-08-25T12:01:47.077Z,4.395
2022-08-25T12:02:50.693Z,4.545
2022-08-25T12:04:29.557Z,4.395
2022-08-25T12:05:36.938Z,4.395
2022-08-25T12:06:39.783Z,4.395
2022-08-25T12:08:20.643Z,4.545
2022-08-25T12:09:27.141Z,4.695
2022-08-25T12:10:30.782Z,4.83
2022-08-25T12:12:20.142Z,4.545
2022-08-25T12:13:27.354Z,4.395
2022-08-25T12:14:34.019Z,4.545
2022-08-25T12:16:13.559Z,4.395
2022-08-25T12:17:24.590Z,4.395
2022-08-25T12:18:32.105Z,4.395
2022-08-25T12:20:11.732Z,4.83
2022-08-25T12:21:14.682Z,4.83
2022-08-25T12:22:20.672Z,4.83
2022-08-25T12:24:04.521Z,4.98
2022-08-25T12:25:15.594Z,4.695
2022-08-25T12:26:22.625Z,4.545
2022-08-25T12:28:03.014Z,4.545
2022-08-25T12:29:18.548Z,4.545
2022-08-25T12:30:42.665Z,4.545
2022-08-25T12:32:21.933Z,4.545
2022-08-25T12:33:25.724Z,4.83
2022-08-25T12:34:35.355Z,4.98
2022-08-25T12:36:16.834Z,5.28
2022-08-25T12:37:23.360Z,4.98
2022-08-25T12:38:26.096Z,4.83
2022-08-25T12:40:10.232Z,4.83
2022-08-25T12:41:14.823Z,4.83
2022-08-25T12:42:23.365Z,4.98
2022-08-25T12:44:06.493Z,5.28
2022-08-25T12:45:15.851Z,5.28
2022-08-25T12:46:21.510Z,5.28
2022-08-25T12:48:01.658Z,5.415
2022-08-25T12:49:06.323Z,5.28
2022-08-25T12:50:11.882Z,5.415
2022-08-25T12:51:54.480Z,5.565
2022-08-25T12:53:03.426Z,5.28
2022-08-25T12:54:09.881Z,4.98
2022-08-25T12:55:44.872Z,4.695
2022-08-25T12:56:53.464Z,4.695
2022-08-25T12:57:58.761Z,4.545
2022-08-25T13:00:42.510Z,4.395
2022-08-25T13:02:13.135Z,4.545
2022-08-25T13:03:23.681Z,4.545
2022-08-25T13:05:00.736Z,4.545
2022-08-25T13:06:07.031Z,4.395
2022-08-25T13:07:13.203Z,4.395
2022-08-25T13:09:08.246Z,4.395
2022-08-25T13:10:11.381Z,4.395
2022-08-25T13:11:16.800Z,4.395
2022-08-25T13:13:00.232Z,4.245
2022-08-25T13:14:06.913Z,4.095
2022-08-25T13:15:13.050Z,4.095
2022-08-25T13:16:57.836Z,4.095
2022-08-25T13:18:04.259Z,3.96
2022-08-25T13:19:14.187Z,4.095
2022-08-25T13:20:55.759Z,4.095
2022-08-25T13:22:00.361Z,3.96
2022-08-25T13:23:09.786Z,3.81
2022-08-25T13:24:53.375Z,3.81
2022-08-25T13:26:04.009Z,3.66
2022-08-25T13:27:22.661Z,3.66
2022-08-25T13:29:14.239Z,3.81
2022-08-25T13:30:21.684Z,3.81
2022-08-25T13:31:24.693Z,3.96
2022-08-25T13:33:08.807Z,3.81
2022-08-25T13:34:34.570Z,3.66
2022-08-25T13:35:53.397Z,3.51
2022-08-25T13:37:30.548Z,3.225
2022-08-25T13:38:35.473Z,3.51
2022-08-25T13:40:17.815Z,3.225
2022-08-25T13:42:10.560Z,2.925
2022-08-25T13:43:33.359Z,3.225
2022-08-25T13:44:41.818Z,3.225
2022-08-25T13:46:28.259Z,3.66
2022-08-25T13:47:43.383Z,3.66
2022-08-25T13:49:03.474Z,3.51
2022-08-25T13:50:43.247Z,3.225
2022-08-25T13:52:00.403Z,3.51
2022-08-25T13:53:06.263Z,3.225
2022-08-25T13:54:49.235Z,3.225
2022-08-25T13:57:24.129Z,3.225
2022-08-25T13:59:15.657Z,3.51
2022-08-25T14:00:48.902Z,3.225
2022-08-25T14:02:25.393Z,3.075
2022-08-25T14:03:57.021Z,3.075
2022-08-25T14:05:41.827Z,2.925
2022-08-25T14:06:46.023Z,2.925
2022-08-25T14:08:25.845Z,3.075
2022-08-25T14:10:11.202Z,2.925
2022-08-25T14:11:20.754Z,2.925
2022-08-25T14:12:23.745Z,2.925
2022-08-25T14:14:10.730Z,3.075
2022-08-25T14:15:15.937Z,2.925
2022-08-25T14:16:19.048Z,2.925
2022-08-25T14:18:13.894Z,2.79
2022-08-25T14:19:25.820Z,2.79
2022-08-25T14:20:31.070Z,2.79
2022-08-25T14:22:14.359Z,2.79
2022-08-25T14:23:24.591Z,2.79
2022-08-25T14:24:28.391Z,2.79
2022-08-25T14:26:04.986Z,2.49
2022-08-25T14:27:25.204Z,2.64
2022-08-25T14:28:38.039Z,2.49
2022-08-25T14:30:29.126Z,2.925
2022-08-25T14:31:37.629Z,2.925
2022-08-25T14:32:44.181Z,2.925
2022-08-25T14:34:25.871Z,2.79
2022-08-25T14:35:42.732Z,2.79
2022-08-25T14:36:56.306Z,2.79
2022-08-25T14:38:37.768Z,2.64
2022-08-25T14:39:42.040Z,2.64
2022-08-25T14:40:51.596Z,2.64
2022-08-25T14:42:31.029Z,2.64
2022-08-25T14:43:49.404Z,2.79
2022-08-25T14:44:56.197Z,2.79
2022-08-25T14:46:40.159Z,2.79
2022-08-25T14:47:49.777Z,2.79
2022-08-25T14:48:55.097Z,2.79
2022-08-25T14:50:42.042Z,2.79
2022-08-25T14:51:49.177Z,2.79
2022-08-25T14:52:59.650Z,2.79
2022-08-25T14:54:43.535Z,2.79
2022-08-25T14:56:09.330Z,2.79
2022-08-25T14:57:14.678Z,2.925
2022-08-25T15:27:53.778Z,2.79
2022-08-25T15:28:57.885Z,2.34
2022-08-25T15:30:02.488Z,2.34
2022-08-25T15:31:51.030Z,2.34
2022-08-25T15:33:02.305Z,2.19
2022-08-25T15:34:11.917Z,2.34
2022-08-25T15:35:55.628Z,2.34
2022-08-25T15:37:01.369Z,2.34
2022-08-25T15:38:08.372Z,2.34
2022-08-25T15:39:46.568Z,2.34
2022-08-25T15:40:51.946Z,2.34
2022-08-25T15:42:00.006Z,2.34
2022-08-25T16:06:17.846Z,2.34
2022-08-25T16:07:24.808Z,2.055
2022-08-25T16:08:37.023Z,2.055
2022-08-25T16:10:16.692Z,1.905
2022-08-25T16:11:21.033Z,2.055
2022-08-25T16:12:33.659Z,2.055
2022-08-25T16:14:13.836Z,2.055
2022-08-25T16:15:24.057Z,1.905
2022-08-25T16:16:32.943Z,1.905
2022-08-25T16:18:22.604Z,2.055
2022-08-25T16:19:26.948Z,1.905
2022-08-25T16:20:36.368Z,1.905
2022-08-25T16:22:26.014Z,1.905
2022-08-25T16:23:30.446Z,2.055
2022-08-25T16:24:38.349Z,2.055
2022-08-25T16:26:15.560Z,2.055
2022-08-25T16:27:29.007Z,2.055
2022-08-25T16:28:43.903Z,2.19
2022-08-25T16:30:29.194Z,2.19
2022-08-25T16:31:33.740Z,2.19
2022-08-25T16:32:38.940Z,2.34
2022-08-25T16:34:30.765Z,2.34
2022-08-25T16:35:42.019Z,2.34
2022-08-25T16:36:46.046Z,2.34
2022-08-25T16:38:31.353Z,2.34
2022-08-25T16:39:46.257Z,2.055
2022-08-25T16:40:52.813Z,2.055
2022-08-25T16:42:29.169Z,1.905
2022-08-25T16:43:32.658Z,1.905
2022-08-25T16:44:46.339Z,1.905
2022-08-25T16:46:24.536Z,1.905
2022-08-25T16:47:38.636Z,1.47
2022-08-25T16:48:44.173Z,1.32
2022-08-25T16:50:22.363Z,1.17
2022-08-25T16:51:32.582Z,1.17
2022-08-25T16:52:44.420Z,1.17
2022-08-25T16:54:33.843Z,1.02
2022-08-25T16:55:50.606Z,1.02
2022-08-25T16:57:01.242Z,0.885
2022-08-25T16:58:45.881Z,0.735
2022-08-25T16:59:52.837Z,0.585
2022-08-25T17:00:44.789Z,0.585
2022-08-25T17:01:50.073Z,0.585
2022-08-25T17:02:56.756Z,0.585
2022-08-25T17:04:51.491Z,0.585
2022-08-25T17:05:56.187Z,0.585
2022-08-25T17:07:10.794Z,0.585
2022-08-25T17:08:49.627Z,0.435
2022-08-25T17:09:58.820Z,0.585
2022-08-25T17:11:04.707Z,0.435
2022-08-25T17:12:41.341Z,0.585
2022-08-25T17:13:50.531Z,0.435
2022-08-25T17:14:54.810Z,0.435
2022-08-25T17:16:41.473Z,0.435
2022-08-25T17:17:50.872Z,0.435
2022-08-25T17:19:00.274Z,0.435
2022-08-25T17:20:40.830Z,0.435
2022-08-25T17:21:56.758Z,0.435
2022-08-25T17:23:02.451Z,0.435
2022-08-25T17:25:12.738Z,0.435
2022-08-25T17:26:20.508Z,0.435
2022-08-25T17:27:34.488Z,0.435
2022-08-25T17:29:18.158Z,0.435
2022-08-25T17:30:22.511Z,0
2022-08-25T17:31:26.354Z,0.435
2022-08-25T17:33:09.677Z,0.435
2022-08-25T17:34:16.324Z,0
2022-08-25T17:35:26.535Z,0
2022-08-25T17:37:05.456Z,0
2022-08-25T17:38:17.809Z,0
2022-08-25T17:39:22.562Z,0
2022-08-25T17:41:07.797Z,0
2022-08-25T17:42:12.775Z,0
2022-08-25T17:43:21.336Z,0
2022-08-25T17:45:00.369Z,0
2022-08-25T17:46:09.547Z,0
2022-08-25T17:47:19.149Z,0
2022-08-25T17:49:01.336Z,0
2022-08-25T17:50:04.937Z,0
2022-08-25T17:51:09.930Z,0
2022-08-25T17:52:55.585Z,0
2022-08-25T17:54:01.826Z,0
2022-08-25T17:55:06.205Z,0
2022-08-25T17:56:51.690Z,0
2022-08-25T17:57:55.737Z,0
2022-08-25T17:58:59.129Z,0
2022-08-25T18:00:49.569Z,0
2022-08-25T18:02:01.494Z,0
2022-08-25T18:03:06.754Z,0
2022-08-25T18:04:54.769Z,0
2022-08-25T18:05:58.321Z,0
2022-08-25T18:07:04.286Z,0
2022-08-25T18:09:00.134Z,0
2022-08-25T18:10:04.608Z,0
2022-08-25T18:11:08.659Z,0
2022-08-25T18:12:51.039Z,0
2022-08-25T18:13:56.923Z,0
2022-08-25T18:15:04.628Z,0
2022-08-25T18:16:47.917Z,0
2022-08-25T18:17:51.944Z,0
2022-08-25T18:18:57.280Z,0
2022-08-25T18:20:34.972Z,0
2022-08-25T18:21:43.460Z,0
2022-08-25T18:22:49.846Z,0
2022-08-25T18:24:29.449Z,0
2022-08-25T18:25:35.552Z,0
2022-08-25T18:26:49.038Z,0
2022-08-25T18:28:26.744Z,0
2022-08-25T18:29:34.477Z,0
2022-08-25T18:30:39.023Z,0
2022-08-25T18:32:26.165Z,0
2022-08-25T18:33:30.593Z,0
2022-08-25T18:34:36.275Z,0
2022-08-25T18:36:17.443Z,0
2022-08-25T18:37:24.764Z,0
2022-08-25T18:38:32.695Z,0
2022-08-25T18:40:14.068Z,0
2022-08-25T18:41:17.731Z,0
2022-08-25T18:42:22.236Z,0
2022-08-25T18:44:03.678Z,0
2022-08-25T18:45:12.492Z,0
2022-08-25T18:46:16.907Z,0
2022-08-25T18:47:57.770Z,0
2022-08-25T18:49:04.749Z,0
2022-08-25T18:50:16.019Z,0
2022-08-25T18:51:56.089Z,0
2022-08-25T18:53:01.041Z,0
2022-08-25T18:54:36.372Z,0
2022-08-25T18:56:12.498Z,0
2022-08-25T18:57:19.700Z,0
2022-08-25T18:58:31.043Z,0
2022-08-25T19:00:43.393Z,0
2022-08-25T19:01:48.566Z,0
2022-08-25T19:02:59.732Z,0
2022-08-25T19:04:43.398Z,0
2022-08-25T19:05:57.049Z,0
2022-08-25T19:07:03.200Z,0
2022-08-25T19:08:47.767Z,0
2022-08-25T19:09:56.708Z,0
2022-08-25T19:11:01.809Z,0
2022-08-25T19:12:57.005Z,0
2022-08-25T19:14:00.578Z,0